Time;durP1;ratioP1;P1;durP2;ratioP2;P2;SDS_P1;SDS_P2;PMS_P1;PMS_P2;Temp;Humidity;BMP_temperature;BMP_pressure;BME280_temperature;BME280_humidity;BME280_pressure;Samples;Min_cycle;Max_cycle;Signal;HPM_P1;HPM_P2
2022/05/18 00:00:16;;;;;;;;;7.25;6.75;;;;;25.03;44.22;101321.31;5006603;28;45407;-57
2022/05/18 00:02:41;;;;;;;;;6.00;6.00;;;;;24.98;43.86;101311.03;4999101;28;45186;-55
2022/05/18 00:05:07;;;;;;;;;7.50;7.00;;;;;25.00;44.56;101320.56;4998251;28;45265;-51
2022/05/18 00:07:33;;;;;;;;;6.00;6.00;;;;;25.01;44.61;101322.28;4998186;28;45187;-56
2022/05/18 00:09:59;;;;;;;;;6.00;6.00;;;;;25.02;44.73;101325.78;4997693;28;46088;-56
2022/05/18 00:12:25;;;;;;;;;6.00;6.00;;;;;25.00;44.02;101320.56;5012765;28;45386;-57
2022/05/18 00:14:50;;;;;;;;;7.00;5.75;;;;;25.02;44.63;101328.44;4999259;28;45341;-56
2022/05/18 00:17:16;;;;;;;;;7.75;7.00;;;;;25.00;44.53;101319.72;5000985;28;45312;-54
2022/05/18 00:19:41;;;;;;;;;6.00;6.00;;;;;25.03;44.91;101331.94;4998160;28;46172;-56
2022/05/18 00:22:06;;;;;;;;;7.75;6.50;;;;;25.01;45.05;101330.22;5003402;28;45485;-55
2022/05/18 00:24:31;;;;;;;;;7.25;7.00;;;;;25.00;44.46;101338.28;4998191;28;45503;-55
2022/05/18 00:26:57;;;;;;;;;4.00;4.00;;;;;25.03;44.55;101337.22;4998581;28;45469;-55
2022/05/18 00:29:22;;;;;;;;;8.00;6.50;;;;;25.03;44.96;101338.06;4997171;28;46759;-50
2022/05/18 00:31:48;;;;;;;;;9.00;7.00;;;;;25.04;45.22;101339.78;4997193;28;45476;-53
2022/05/18 00:34:16;;;;;;;;;5.75;5.75;;;;;25.01;45.32;101340.84;4997496;28;45304;-54
2022/05/18 00:36:42;;;;;;;;;6.25;6.25;;;;;25.04;45.39;101349.53;4997437;28;45481;-57
2022/05/18 00:39:07;;;;;;;;;5.00;5.00;;;;;25.03;45.28;101350.50;4996697;28;46029;-56
2022/05/18 00:41:33;;;;;;;;;10.75;6.00;;;;;25.01;45.68;101348.78;4996914;28;45278;-54
2022/05/18 00:43:58;;;;;;;;;6.75;5.50;;;;;25.00;45.26;101349.75;4996987;28;45225;-57
2022/05/18 00:46:25;;;;;;;;;9.25;7.00;;;;;25.01;46.02;101356.75;4998102;28;45524;-55
2022/05/18 00:48:53;;;;;;;;;7.25;7.25;;;;;25.01;45.53;101355.91;5000023;28;46334;-54
2022/05/18 00:51:37;;;;;;;;;5.75;5.75;;;;;25.00;45.86;101355.03;5000214;28;45754;-54
2022/05/18 00:54:09;;;;;;;;;5.75;5.75;;;;;25.01;45.91;101361.22;5000075;28;45453;-53
2022/05/18 00:56:41;;;;;;;;;9.25;6.25;;;;;25.00;46.11;101365.66;5000368;28;45412;-51
2022/05/18 00:59:15;;;;;;;;;9.00;7.00;;;;;25.01;45.76;101366.53;5000198;28;46514;-49
2022/05/18 01:01:41;;;;;;;;;5.75;5.75;;;;;25.00;45.82;101365.66;5000138;28;45613;-51
2022/05/18 01:04:09;;;;;;;;;5.75;5.75;;;;;24.99;45.90;101363.94;5000086;28;45371;-51
2022/05/18 01:06:46;;;;;;;;;6.00;6.00;;;;;24.97;46.52;101371.16;5000643;28;45563;-49
2022/05/18 01:09:19;;;;;;;;;8.75;6.00;;;;;24.99;46.51;101374.56;5000166;28;46439;-51
2022/05/18 01:11:45;;;;;;;;;7.00;7.00;;;;;24.99;46.26;101376.38;5000366;28;45454;-47
2022/05/18 01:14:19;;;;;;;;;7.25;6.75;;;;;24.99;46.10;101395.78;4999999;28;45305;-48
2022/05/18 01:16:45;;;;;;;;;6.00;6.00;;;;;24.98;46.61;101379.97;5000669;28;45153;-48
2022/05/18 01:19:38;;;;;;;;;5.50;5.50;;;;;24.97;46.46;101373.81;4999837;28;45368;-48
2022/05/18 01:22:12;;;;;;;;;7.50;6.25;;;;;24.99;47.05;101368.41;4999387;28;45256;-47
2022/05/18 01:24:50;;;;;;;;;7.50;7.00;;;;;24.99;46.92;101379.84;5000430;28;45223;-48
2022/05/18 01:27:15;;;;;;;;;6.00;6.00;;;;;24.97;46.63;101376.44;5002855;28;45269;-48
2022/05/18 01:29:40;;;;;;;;;7.00;7.00;;;;;24.98;47.24;101378.16;5014894;28;46278;-54
2022/05/18 01:32:11;;;;;;;;;8.50;8.50;;;;;24.95;47.42;101381.03;5024938;28;45505;-50
2022/05/18 01:34:41;;;;;;;;;7.75;6.50;;;;;24.97;46.94;101395.00;5024908;28;44748;-52
2022/05/18 01:37:11;;;;;;;;;9.50;6.75;;;;;24.97;47.03;101397.66;5004748;28;45323;-48
2022/05/18 01:39:50;;;;;;;;;6.25;6.25;;;;;24.97;47.12;101400.31;5001481;28;46058;-54
2022/05/18 01:42:29;;;;;;;;;6.00;6.00;;;;;24.98;46.74;101398.53;4999690;28;45333;-57
2022/05/18 01:44:54;;;;;;;;;7.75;7.00;;;;;24.97;46.79;101402.97;4999916;28;45504;-57
2022/05/18 01:47:20;;;;;;;;;6.50;6.50;;;;;24.97;46.81;101397.66;5000905;28;45648;-53
2022/05/18 01:49:47;;;;;;;;;7.00;7.00;;;;;24.97;47.00;101402.97;5000985;28;45534;-53
2022/05/18 01:52:14;;;;;;;;;6.75;6.00;;;;;24.96;47.20;101406.59;5014762;28;45181;-48
2022/05/18 01:54:43;;;;;;;;;6.25;6.25;;;;;24.97;47.15;101407.44;5000735;28;45258;-50
2022/05/18 01:57:09;;;;;;;;;6.00;6.00;;;;;24.97;47.18;101408.28;5001260;28;45347;-54
2022/05/18 01:59:36;;;;;;;;;9.75;7.00;;;;;24.96;47.07;101409.25;5000501;28;46220;-52
2022/05/18 02:02:02;;;;;;;;;6.25;6.00;;;;;24.96;47.08;101413.69;5001140;28;45162;-55
2022/05/18 02:04:27;;;;;;;;;8.50;6.50;;;;;24.95;47.17;101404.91;5011012;28;45316;-49
2022/05/18 02:06:53;;;;;;;;;7.00;6.75;;;;;24.94;47.36;101408.50;5007067;28;45336;-51
2022/05/18 02:09:20;;;;;;;;;6.25;5.50;;;;;24.96;47.78;101419.00;4999213;28;46001;-49
2022/05/18 02:11:46;;;;;;;;;5.50;4.25;;;;;24.95;47.94;101431.41;5001018;28;45342;-50
2022/05/18 02:14:11;;;;;;;;;5.75;5.75;;;;;24.95;47.72;101428.75;5000711;28;45459;-47
2022/05/18 02:16:37;;;;;;;;;7.25;6.25;;;;;24.95;48.22;101428.75;5024789;28;45510;-54
2022/05/18 02:19:02;;;;;;;;;6.50;5.50;;;;;24.94;47.63;101435.00;5025573;28;45514;-49
2022/05/18 02:21:28;;;;;;;;;8.00;7.00;;;;;24.94;47.69;101429.72;5026936;28;44726;-50
2022/05/18 02:23:53;;;;;;;;;6.25;6.25;;;;;24.92;47.72;101436.91;5026609;28;44967;-49
2022/05/18 02:26:19;;;;;;;;;7.00;7.00;;;;;24.94;47.74;101440.31;5028350;28;45086;-50
2022/05/18 02:28:45;;;;;;;;;6.00;6.00;;;;;24.94;47.69;101444.75;5027054;28;46189;-53
2022/05/18 02:31:12;;;;;;;;;6.25;6.25;;;;;24.91;47.99;101445.81;5026141;28;44954;-47
2022/05/18 02:33:38;;;;;;;;;7.75;5.00;;;;;24.93;48.53;101449.22;5015703;28;45503;-57
2022/05/18 02:36:06;;;;;;;;;8.25;6.25;;;;;24.92;48.28;101455.47;5003593;28;45625;-58
2022/05/18 02:38:32;;;;;;;;;3.00;3.00;;;;;24.91;48.62;101460.88;5006612;28;46258;-56
2022/05/18 02:40:58;;;;;;;;;5.00;5.00;;;;;24.88;47.97;101461.91;5041286;28;44802;-48
2022/05/18 02:43:24;;;;;;;;;7.50;7.25;;;;;24.90;47.98;101470.63;5025978;28;44811;-56
2022/05/18 02:45:50;;;;;;;;;5.00;5.00;;;;;24.89;48.12;101468.91;5023774;28;44890;-48
2022/05/18 02:48:15;;;;;;;;;4.00;4.00;;;;;24.88;48.31;101477.81;5016402;28;46213;-57
2022/05/18 02:50:44;;;;;;;;;5.50;5.50;;;;;24.89;48.44;101468.06;5010060;28;45221;-50
2022/05/18 02:53:10;;;;;;;;;5.00;5.00;;;;;24.88;48.23;101467.22;4998824;28;45625;-49
2022/05/18 02:58:19;;;;;;;;;5.00;4.25;;;;;24.87;47.94;101484.06;4997607;28;45213;-57
2022/05/18 03:00:44;;;;;;;;;3.75;3.75;;;;;24.83;47.93;101472.81;4997707;28;45209;-57
2022/05/18 03:03:10;;;;;;;;;5.50;4.00;;;;;24.84;47.68;101479.81;4998090;28;45370;-57
2022/05/18 03:05:35;;;;;;;;;5.25;4.00;;;;;24.83;47.69;101477.28;4998146;28;45637;-58
2022/05/18 03:08:01;;;;;;;;;5.00;4.00;;;;;24.85;47.75;101486.00;4996922;28;50760;-56
2022/05/18 03:10:26;;;;;;;;;4.50;4.50;;;;;24.83;47.90;101472.81;4997056;28;45392;-49
2022/05/18 03:12:52;;;;;;;;;5.00;5.00;;;;;24.83;47.32;101475.47;4998098;28;45371;-57
2022/05/18 03:15:17;;;;;;;;;4.25;4.25;;;;;24.82;47.85;101476.41;4997825;28;45240;-58
2022/05/18 03:17:42;;;;;;;;;3.00;3.00;;;;;24.81;47.37;101479.16;4997411;28;46945;-56
2022/05/18 03:23:33;;;;;;;;;3.00;3.00;;;;;24.80;47.80;101472.16;4997203;28;45371;-57
2022/05/18 03:25:40;;;;;;;;;2.75;2.75;;;;;24.79;47.06;101484.56;4997717;28;45398;-55
2022/05/18 03:28:06;;;;;;;;;3.00;3.00;;;;;24.77;46.73;101496.19;4999638;28;47130;-58
2022/05/18 03:30:31;;;;;;;;;2.25;2.25;;;;;24.78;47.11;101497.91;5001587;28;45266;-54
2022/05/18 03:32:56;;;;;;;;;2.50;2.50;;;;;24.77;47.01;101498.84;5010250;28;47272;-56
2022/05/18 03:35:22;;;;;;;;;5.00;2.25;;;;;24.75;46.66;101493.66;5010869;28;51857;-57
2022/05/18 03:37:47;;;;;;;;;3.00;2.00;;;;;24.75;46.59;101498.13;4997440;28;45237;-57
2022/05/18 03:40:12;;;;;;;;;2.00;2.00;;;;;24.73;46.40;101513.28;4997582;28;45238;-56
2022/05/18 03:42:37;;;;;;;;;2.50;2.50;;;;;24.72;46.91;101514.22;4997440;28;45375;-58
2022/05/18 03:45:03;;;;;;;;;4.00;2.75;;;;;24.68;46.58;101509.09;4997486;28;46856;-58
2022/05/18 03:47:29;;;;;;;;;3.75;3.00;;;;;24.69;46.46;101518.75;4996871;28;46367;-57
2022/05/18 03:49:54;;;;;;;;;4.50;2.25;;;;;24.69;46.51;101521.41;4997386;28;45170;-56
2022/05/18 03:52:19;;;;;;;;;3.00;3.00;;;;;24.68;46.83;101530.31;4996906;28;45217;-57
2022/05/18 03:54:44;;;;;;;;;3.25;2.00;;;;;24.67;46.49;101531.22;4997033;28;45450;-57
2022/05/18 03:57:10;;;;;;;;;2.75;2.75;;;;;24.67;46.61;101533.88;4996718;28;46171;-58
2022/05/18 03:59:36;;;;;;;;;2.00;2.00;;;;;24.66;46.42;101537.47;4996884;28;45714;-57
2022/05/18 04:02:01;;;;;;;;;3.00;3.00;;;;;24.66;46.63;101541.94;4997456;28;45292;-57
2022/05/18 04:04:27;;;;;;;;;1.75;1.75;;;;;24.64;45.64;101543.81;4997420;28;45577;-54
2022/05/18 04:06:52;;;;;;;;;3.50;3.00;;;;;24.63;45.85;101547.41;4996931;28;46997;-57
2022/05/18 04:09:17;;;;;;;;;2.25;2.25;;;;;24.61;45.35;101541.34;4996736;28;45360;-56
2022/05/18 04:11:42;;;;;;;;;2.00;2.00;;;;;24.59;45.08;101548.53;4996931;28;45809;-57
2022/05/18 04:14:08;;;;;;;;;2.00;2.00;;;;;24.54;45.43;101549.69;5011936;28;47750;-48
2022/05/18 04:16:34;;;;;;;;;3.00;2.00;;;;;24.48;45.03;101554.50;4996647;28;45931;-48
2022/05/18 04:18:59;;;;;;;;;3.00;2.00;;;;;24.43;45.55;101556.56;4996630;28;45826;-48
2022/05/18 04:21:26;;;;;;;;;2.00;2.00;;;;;24.37;45.11;101556.00;4996691;28;45519;-53
2022/05/18 04:23:52;;;;;;;;;2.00;2.00;;;;;24.30;45.50;101554.69;4996780;28;45427;-47
2022/05/18 04:26:18;;;;;;;;;1.00;1.00;;;;;24.27;45.53;101554.88;4996214;28;46759;-49
2022/05/18 04:28:43;;;;;;;;;2.50;2.00;;;;;24.24;45.09;101557.69;4996705;28;45443;-49
2022/05/18 04:31:08;;;;;;;;;2.00;2.00;;;;;24.19;45.44;101549.19;4996400;28;46306;-48
2022/05/18 04:33:34;;;;;;;;;3.25;1.00;;;;;24.16;44.91;101554.66;4997456;28;45186;-48
2022/05/18 04:36:02;;;;;;;;;2.00;2.00;;;;;24.12;45.27;101553.13;4996506;28;45193;-47
2022/05/18 04:38:28;;;;;;;;;2.50;2.00;;;;;24.11;44.78;101546.13;4996620;28;45853;-47
2022/05/18 04:40:55;;;;;;;;;2.00;2.00;;;;;24.07;44.99;101556.91;4996829;28;45309;-48
2022/05/18 04:43:21;;;;;;;;;3.00;2.00;;;;;24.04;44.78;101557.09;4996801;28;45471;-51
2022/05/18 04:45:46;;;;;;;;;1.75;1.00;;;;;24.01;44.86;101557.25;4996090;28;47302;-47
2022/05/18 04:48:15;;;;;;;;;3.00;2.00;;;;;23.98;45.33;101562.72;4996240;28;45435;-49
2022/05/18 04:50:41;;;;;;;;;3.00;1.25;;;;;23.93;45.08;101567.41;4996454;28;45372;-47
2022/05/18 04:53:06;;;;;;;;;2.50;1.00;;;;;23.93;44.45;101575.38;4996666;28;45668;-48
2022/05/18 04:55:31;;;;;;;;;1.25;1.25;;;;;23.90;45.09;101587.00;4996744;28;46071;-49
2022/05/18 04:58:04;;;;;;;;;2.75;1.50;;;;;23.87;44.51;101583.66;5015344;28;45316;-50
2022/05/18 05:00:29;;;;;;;;;2.00;1.00;;;;;23.85;44.67;101577.63;5025083;28;44707;-51
2022/05/18 05:02:57;;;;;;;;;1.00;1.00;;;;;23.83;44.35;101580.31;5021779;28;44913;-56
2022/05/18 05:05:24;;;;;;;;;1.00;1.00;;;;;23.84;44.84;101597.09;5001041;28;46106;-54
2022/05/18 05:07:50;;;;;;;;;1.50;1.50;;;;;23.82;44.68;101596.31;4997635;28;45258;-57
2022/05/18 05:10:17;;;;;;;;;2.00;1.00;;;;;23.78;44.87;101588.53;4995900;28;45214;-56
2022/05/18 05:12:42;;;;;;;;;1.75;1.00;;;;;23.80;45.05;101590.25;4995926;28;45567;-57
2022/05/18 05:15:09;;;;;;;;;2.00;2.00;;;;;23.77;44.73;101592.13;4995673;28;45986;-56
2022/05/18 05:17:34;;;;;;;;;1.25;1.00;;;;;23.75;44.59;101599.31;4995808;28;45494;-57
2022/05/18 05:20:00;;;;;;;;;2.00;1.00;;;;;23.74;44.27;101597.63;4996201;28;45166;-53
2022/05/18 05:22:26;;;;;;;;;1.25;1.25;;;;;23.73;44.65;101601.19;4995970;28;45562;-58
2022/05/18 05:24:51;;;;;;;;;1.00;1.00;;;;;23.73;44.40;101610.91;4995280;28;46244;-56
2022/05/18 05:27:17;;;;;;;;;2.00;1.00;;;;;23.73;44.73;101609.13;4995590;28;45474;-56
2022/05/18 05:29:42;;;;;;;;;1.50;1.50;;;;;23.73;44.43;101618.84;4995830;28;45322;-57
2022/05/18 05:32:08;;;;;;;;;1.00;1.00;;;;;23.71;44.48;101629.53;4997202;28;45366;-55
2022/05/18 05:34:34;;;;;;;;;4.75;1.00;;;;;23.68;44.61;101624.41;4999729;28;45500;-56
2022/05/18 05:37:00;;;;;;;;;1.00;1.00;;;;;23.67;44.36;101633.28;5000066;28;45361;-57
2022/05/18 05:39:25;;;;;;;;;2.00;1.00;;;;;23.67;44.62;101629.81;5000962;28;45675;-57
2022/05/18 05:41:51;;;;;;;;;1.00;1.00;;;;;23.66;44.43;101641.31;5000928;28;45683;-51
2022/05/18 05:44:16;;;;;;;;;2.67;1.00;;;;;23.64;44.29;101633.47;4999512;28;45377;-57
2022/05/18 05:46:41;;;;;;;;;1.00;1.00;;;;;23.66;44.22;101638.69;4998787;28;45552;-56
2022/05/18 05:49:07;;;;;;;;;1.25;1.25;;;;;23.65;44.10;101640.44;4998696;28;45350;-53
2022/05/18 05:51:32;;;;;;;;;3.50;1.75;;;;;23.66;44.38;101642.16;4999571;28;45653;-48
2022/05/18 05:53:58;;;;;;;;;1.25;1.25;;;;;23.65;44.42;101645.75;4998868;28;46333;-54
2022/05/18 05:56:23;;;;;;;;;1.00;1.00;;;;;23.65;44.50;101647.56;4998649;28;45261;-57
2022/05/18 05:58:49;;;;;;;;;1.25;1.25;;;;;23.65;44.36;101644.91;4998725;28;45444;-57
2022/05/18 06:01:16;;;;;;;;;2.00;2.00;;;;;23.63;44.07;101652.94;4998890;28;45294;-56
2022/05/18 06:03:42;;;;;;;;;2.25;2.00;;;;;23.63;44.45;101648.50;4998438;28;45423;-56
2022/05/18 06:06:10;;;;;;;;;1.00;1.00;;;;;23.64;44.50;101646.72;4998420;28;45416;-56
2022/05/18 06:08:36;;;;;;;;;0.75;0.75;;;;;23.63;44.56;101647.66;5001251;28;45335;-53
2022/05/18 06:11:02;;;;;;;;;2.00;2.00;;;;;23.65;44.23;101650.19;5003422;28;45269;-55
2022/05/18 06:13:28;;;;;;;;;1.00;1.00;;;;;23.65;44.11;101653.69;5018055;28;46273;-55
2022/05/18 06:15:54;;;;;;;;;3.00;2.00;;;;;23.66;44.32;101652.75;5019745;28;44981;-51
2022/05/18 06:18:19;;;;;;;;;3.25;1.50;;;;;23.66;44.27;101658.03;5018020;28;45788;-52
2022/05/18 06:20:47;;;;;;;;;1.00;1.00;;;;;23.67;44.25;101659.75;5011928;28;44707;-56
2022/05/18 06:23:13;;;;;;;;;2.00;2.00;;;;;23.68;44.29;101657.97;4999781;28;47361;-51
2022/05/18 06:25:39;;;;;;;;;2.00;2.00;;;;;23.67;44.27;101654.47;4998876;28;45734;-54
2022/05/18 06:28:07;;;;;;;;;2.25;2.25;;;;;23.71;44.03;101666.59;4999405;28;45308;-53
2022/05/18 06:30:32;;;;;;;;;2.00;2.00;;;;;23.71;43.93;101658.66;4999261;28;45272;-56
2022/05/18 06:32:58;;;;;;;;;2.00;2.00;;;;;23.68;44.15;101656.16;5013515;28;47789;-52
2022/05/18 06:35:24;;;;;;;;;2.00;2.00;;;;;23.71;44.31;101666.59;4998210;28;45479;-57
2022/05/18 06:37:49;;;;;;;;;3.75;2.25;;;;;23.72;44.48;101663.00;4998421;28;45446;-57
2022/05/18 06:40:15;;;;;;;;;4.00;2.00;;;;;23.73;44.14;101656.78;4998506;28;45486;-57
2022/05/18 06:42:41;;;;;;;;;2.00;2.00;;;;;23.76;44.31;101658.38;4998720;28;45529;-56
2022/05/18 06:45:08;;;;;;;;;2.00;1.00;;;;;23.76;44.06;101656.59;4998349;28;48150;-44
2022/05/18 06:47:34;;;;;;;;;3.00;2.00;;;;;23.79;43.92;101658.22;5003905;28;45375;-50
2022/05/18 06:50:00;;;;;;;;;2.00;2.00;;;;;23.81;43.78;101656.34;5006288;28;45377;-49
2022/05/18 06:52:26;;;;;;;;;2.00;1.00;;;;;23.83;44.12;101656.25;5003140;28;46282;-50
2022/05/18 06:54:51;;;;;;;;;2.00;2.00;;;;;23.86;43.86;101662.22;4997845;28;45272;-49
2022/05/18 06:57:17;;;;;;;;;4.75;2.00;;;;;23.89;43.77;101659.41;4983381;28;45329;-50
2022/05/18 06:59:43;;;;;;;;;2.75;2.75;;;;;23.90;43.57;101654.97;5017279;28;45537;-50
2022/05/18 07:02:09;;;;;;;;;1.75;1.75;;;;;23.93;43.46;101650.34;5004911;28;46366;-50
2022/05/18 07:04:34;;;;;;;;;2.00;1.00;;;;;23.96;43.94;101648.50;5023311;28;45012;-49
2022/05/18 07:07:00;;;;;;;;;2.00;2.00;;;;;23.96;43.82;101646.72;5022909;28;45364;-50
2022/05/18 07:09:27;;;;;;;;;1.25;1.25;;;;;23.99;43.94;101654.47;5021975;28;44914;-51
2022/05/18 07:11:53;;;;;;;;;3.00;1.00;;;;;24.02;43.60;101649.00;5013294;28;46139;-51
2022/05/18 07:14:21;;;;;;;;;2.00;2.00;;;;;24.04;43.27;101646.25;5019248;28;44999;-48
2022/05/18 07:16:47;;;;;;;;;1.00;1.00;;;;;24.05;43.81;101648.81;5030092;28;45228;-49
2022/05/18 07:19:14;;;;;;;;;3.00;1.25;;;;;24.05;43.50;101645.31;5033383;28;45208;-48
2022/05/18 07:21:40;;;;;;;;;2.00;2.00;;;;;24.08;43.31;101647.78;5035805;28;45093;-47
2022/05/18 07:24:06;;;;;;;;;5.25;3.25;;;;;24.08;43.81;101648.66;5035857;28;45609;-47
2022/05/18 07:26:34;;;;;;;;;3.50;3.00;;;;;24.13;43.56;101647.53;5032760;28;45481;-48
2022/05/18 07:29:00;;;;;;;;;3.50;2.00;;;;;24.15;43.57;101645.63;4984551;28;45336;-50
2022/05/18 07:31:26;;;;;;;;;2.25;1.25;;;;;24.15;43.57;101648.28;4985346;28;45342;-48
2022/05/18 07:33:51;;;;;;;;;2.50;2.25;;;;;24.15;43.39;101654.44;4986803;28;45743;-48
2022/05/18 07:36:18;;;;;;;;;4.00;3.00;;;;;24.19;43.10;101655.13;4989187;28;45305;-48
2022/05/18 07:38:44;;;;;;;;;2.00;2.00;;;;;24.19;43.23;101653.31;4989904;28;45305;-48
2022/05/18 07:41:13;;;;;;;;;3.00;2.00;;;;;24.21;43.48;101662.03;4985410;28;45979;-47
2022/05/18 07:43:39;;;;;;;;;1.50;1.50;;;;;24.24;43.66;101661.00;4984950;28;45748;-51
2022/05/18 07:46:05;;;;;;;;;2.75;2.00;;;;;24.26;43.26;101653.81;5001740;28;44692;-47
2022/05/18 07:48:31;;;;;;;;;4.00;2.00;;;;;24.28;43.02;101659.00;5002234;28;44875;-46
2022/05/18 07:50:57;;;;;;;;;2.25;2.00;;;;;24.28;43.19;101659.88;5004331;28;45082;-48
2022/05/18 07:53:23;;;;;;;;;4.00;2.00;;;;;24.28;43.05;101653.72;4999258;28;45732;-55
2022/05/18 07:55:49;;;;;;;;;2.00;2.00;;;;;24.30;43.20;101652.69;4980604;28;45226;-53
2022/05/18 07:58:16;;;;;;;;;2.25;2.25;;;;;24.31;43.11;101659.69;4980283;28;45471;-50
2022/05/18 08:00:42;;;;;;;;;3.00;2.00;;;;;24.30;43.25;101655.34;4978591;28;46372;-48
2022/05/18 08:03:09;;;;;;;;;3.50;2.00;;;;;24.34;43.49;101653.38;4977559;28;45911;-52
2022/05/18 08:05:35;;;;;;;;;3.50;2.00;;;;;24.33;43.38;101649.84;4977772;28;45455;-53
2022/05/18 08:08:12;;;;;;;;;2.00;2.00;;;;;24.35;43.53;101650.63;4978003;28;45170;-51
2022/05/18 08:16:05;;;;;;;;;2.25;2.25;;;;;24.38;43.89;101650.44;4997903;28;45364;-52
2022/05/18 08:18:31;;;;;;;;;2.50;2.50;;;;;24.39;43.73;101656.59;4997384;28;45243;-49
2022/05/18 08:20:56;;;;;;;;;2.75;2.00;;;;;24.42;43.75;101655.56;4997017;28;46085;-51
2022/05/18 08:23:21;;;;;;;;;2.50;2.50;;;;;24.42;43.38;101647.63;4997331;28;45313;-49
2022/05/18 08:25:47;;;;;;;;;3.00;3.00;;;;;24.43;43.62;101641.34;5012019;28;45478;-48
2022/05/18 08:28:14;;;;;;;;;2.00;2.00;;;;;24.43;43.82;101651.94;5011614;28;45310;-49
2022/05/18 08:30:39;;;;;;;;;3.00;3.00;;;;;24.42;43.32;101647.63;5023897;28;46060;-47
2022/05/18 08:33:05;;;;;;;;;3.00;3.00;;;;;24.44;43.35;101643.06;5021181;28;44870;-49
2022/05/18 09:12:46;;;;;;;;;3.00;3.00;;;;;24.56;44.12;101626.44;5971606;22;46561;-49
2022/05/18 09:15:16;;;;;;;;;4.00;2.25;;;;;24.56;44.06;101623.78;5001719;28;45420;-44
2022/05/18 09:17:55;;;;;;;;;4.00;3.75;;;;;24.57;44.05;101622.84;5008391;28;45336;-45
2022/05/18 09:20:23;;;;;;;;;3.75;3.00;;;;;24.59;44.27;101623.59;5003305;28;47348;-45
2022/05/18 09:23:07;;;;;;;;;3.00;3.00;;;;;24.61;43.80;101619.06;5004957;28;45269;-45
2022/05/18 09:26:02;;;;;;;;;5.25;4.00;;;;;24.62;44.24;101619.91;5010563;28;45170;-46
2022/05/18 09:28:39;;;;;;;;;7.00;4.00;;;;;24.62;44.00;101612.81;5001240;28;45219;-49
2022/05/18 09:31:07;;;;;;;;;5.00;4.00;;;;;24.63;44.28;101609.22;5006595;28;45281;-45
2022/05/18 09:34:01;;;;;;;;;3.25;3.25;;;;;24.65;43.77;101615.28;5011650;28;45344;-45
2022/05/18 09:36:38;;;;;;;;;3.25;3.25;;;;;24.66;44.03;101614.31;5014310;28;45224;-46
2022/05/18 09:39:11;;;;;;;;;3.75;3.00;;;;;24.67;44.22;101608.09;5001252;28;45490;-45
2022/05/18 09:41:43;;;;;;;;;5.50;3.00;;;;;24.68;44.29;101615.13;4999649;28;45475;-46
2022/05/18 09:44:25;;;;;;;;;3.75;3.75;;;;;24.70;43.90;101612.38;5000645;28;45203;-53
2022/05/18 09:46:52;;;;;;;;;3.50;3.00;;;;;24.72;43.91;101614.94;5000548;28;46207;-53
2022/05/18 09:49:34;;;;;;;;;2.75;2.75;;;;;24.74;43.96;101610.41;5018867;28;45353;-47
2022/05/18 09:52:03;;;;;;;;;4.50;4.00;;;;;24.75;44.33;101601.50;5013734;28;46163;-50
2022/05/18 09:54:34;;;;;;;;;4.25;3.00;;;;;24.76;44.23;101608.50;5010891;28;45320;-53
2022/05/18 09:57:08;;;;;;;;;5.00;4.00;;;;;24.77;43.75;101608.41;5014726;28;45138;-44
2022/05/18 09:59:40;;;;;;;;;4.00;4.00;;;;;24.79;43.77;101603.00;5016152;28;44765;-44
2022/05/18 10:07:50;;;;;;;;;6.00;3.00;;;;;24.80;44.07;101591.47;5003973;28;45320;-52
2022/05/18 10:10:20;;;;;;;;;4.75;3.75;;;;;24.82;43.89;101582.44;5011342;28;45573;-52
2022/05/18 10:13:08;;;;;;;;;3.25;3.25;;;;;24.83;44.40;101581.50;5010527;28;46614;-43
2022/05/18 10:15:39;;;;;;;;;3.00;2.25;;;;;24.84;44.46;101583.22;5003951;28;45745;-44
2022/05/18 10:18:23;;;;;;;;;4.25;2.50;;;;;24.85;44.11;101579.63;4999880;28;45240;-47
2022/05/18 10:21:09;;;;;;;;;4.00;3.50;;;;;24.85;44.39;101574.31;4999655;28;45368;-53
2022/05/18 10:23:41;;;;;;;;;4.00;2.50;;;;;24.87;44.14;101571.56;4997677;28;47467;-48
2022/05/18 10:26:22;;;;;;;;;2.50;2.50;;;;;24.89;44.14;101571.47;4997882;28;45749;-51
2022/05/18 10:28:57;;;;;;;;;2.00;2.00;;;;;24.89;44.48;101572.31;5002386;28;45375;-56
2022/05/18 10:31:28;;;;;;;;;3.00;2.75;;;;;24.90;43.97;101568.72;5002762;28;45273;-55
2022/05/18 10:34:12;;;;;;;;;5.50;5.00;;;;;24.91;43.79;101559.81;5002442;28;45248;-54
2022/05/18 10:37:03;;;;;;;;;3.00;3.00;;;;;24.92;44.51;101558.88;4998136;28;45458;-56
2022/05/18 10:39:41;;;;;;;;;3.00;3.00;;;;;24.93;43.76;101555.28;4998458;28;45309;-51
2022/05/18 10:42:14;;;;;;;;;3.00;3.00;;;;;24.92;43.80;101558.88;4998602;28;45624;-50
2022/05/18 10:44:40;;;;;;;;;3.00;3.00;;;;;24.94;44.32;101557.00;4997747;28;47161;-50
2022/05/18 10:47:22;;;;;;;;;3.50;2.50;;;;;24.95;44.30;101552.53;4997809;28;45870;-53
2022/05/18 10:49:48;;;;;;;;;4.75;3.00;;;;;24.94;44.37;101545.50;4998028;28;45396;-54
2022/05/18 10:52:33;;;;;;;;;3.00;3.00;;;;;24.93;44.22;101544.69;4998221;28;45526;-51
2022/05/18 10:55:11;;;;;;;;;3.25;3.25;;;;;24.93;44.02;101536.72;4998053;28;46270;-49
2022/05/18 10:57:39;;;;;;;;;4.00;3.00;;;;;24.93;43.95;101542.03;5007876;28;45450;-48
2022/05/18 11:00:15;;;;;;;;;3.75;3.75;;;;;24.94;43.74;101540.22;5002358;28;45276;-45
2022/05/18 11:03:13;;;;;;;;;3.00;3.00;;;;;24.94;44.34;101535.78;5001368;28;45384;-50
2022/05/18 11:05:48;;;;;;;;;3.00;3.00;;;;;24.93;43.76;101528.75;5003824;28;45660;-49
2022/05/18 11:08:18;;;;;;;;;3.25;3.25;;;;;24.92;44.03;101529.72;4997969;28;45489;-50
2022/05/18 11:11:02;;;;;;;;;5.50;3.00;;;;;24.92;44.13;101527.06;4997952;28;45332;-51
2022/05/18 11:13:42;;;;;;;;;3.00;3.00;;;;;24.93;44.21;101539.38;4999051;28;45566;-50
2022/05/18 11:16:10;;;;;;;;;4.00;4.00;;;;;24.92;44.31;101529.72;5006076;28;46508;-48
2022/05/18 11:18:48;;;;;;;;;3.00;3.00;;;;;24.93;44.13;101533.19;5014556;28;45612;-50
2022/05/18 11:21:30;;;;;;;;;4.00;4.00;;;;;24.94;44.21;101534.91;5017501;28;44731;-45
2022/05/18 11:24:08;;;;;;;;;3.50;3.50;;;;;24.95;43.66;101539.25;5003613;28;45530;-48
2022/05/18 11:27:00;;;;;;;;;3.25;3.25;;;;;24.94;43.49;101532.25;5001629;28;46201;-44
2022/05/18 11:29:31;;;;;;;;;3.00;3.00;;;;;24.94;44.05;101526.94;4999607;28;45319;-49
2022/05/18 11:32:12;;;;;;;;;5.00;4.00;;;;;24.95;43.56;101529.53;5000723;28;45367;-43
2022/05/18 11:34:54;;;;;;;;;3.00;3.00;;;;;24.95;43.86;101526.88;5001821;28;45257;-50
2022/05/18 11:37:50;;;;;;;;;7.00;4.00;;;;;24.95;43.60;101518.91;5003263;28;46083;-45
2022/05/18 11:40:32;;;;;;;;;5.75;4.00;;;;;24.95;43.47;101524.22;4998120;28;45471;-48
2022/05/18 11:43:42;;;;;;;;;4.00;4.00;;;;;24.97;43.86;101519.66;5010801;28;45252;-54
2022/05/18 11:46:29;;;;;;;;;5.25;4.25;;;;;24.99;43.57;101514.28;4999236;28;45679;-49
2022/05/18 11:49:13;;;;;;;;;3.50;3.00;;;;;24.97;43.81;101503.75;5007868;28;46902;-46
2022/05/18 11:52:06;;;;;;;;;4.00;4.00;;;;;24.98;43.89;101500.13;4997078;28;45662;-46
2022/05/18 11:55:12;;;;;;;;;5.25;3.75;;;;;24.98;43.58;101500.13;4997074;28;45660;-44
2022/05/18 11:57:46;;;;;;;;;4.00;3.00;;;;;24.98;43.72;101502.78;4997179;28;45182;-45
2022/05/18 12:03:47;;;;;;;;;3.00;3.00;;;;;24.98;43.47;101497.50;4997124;28;45754;-45
2022/05/18 12:06:12;;;;;;;;;5.00;3.00;;;;;24.97;43.86;101495.78;4997376;28;45174;-45
2022/05/18 12:08:59;;;;;;;;;4.00;4.00;;;;;24.97;43.78;101497.59;5003165;28;45475;-45
2022/05/18 12:11:44;;;;;;;;;4.00;4.00;;;;;24.99;43.26;101495.69;4999518;28;45300;-47
2022/05/18 12:14:24;;;;;;;;;3.25;3.25;;;;;24.98;43.75;101486.03;4996371;28;45162;-44
2022/05/18 12:17:06;;;;;;;;;3.00;3.00;;;;;24.99;43.95;101480.63;4996771;28;45316;-46
2022/05/18 12:20:05;;;;;;;;;4.00;4.00;;;;;24.98;43.70;101478.09;4996925;28;45558;-45
2022/05/18 12:22:35;;;;;;;;;4.25;4.25;;;;;24.98;43.26;101476.28;4996395;28;45438;-44
2022/05/18 12:25:03;;;;;;;;;4.00;4.00;;;;;24.97;43.74;101482.53;4998046;28;45599;-45
2022/05/18 12:27:29;;;;;;;;;5.00;3.75;;;;;24.99;43.21;101477.16;4998206;28;45272;-49
2022/05/18 12:29:57;;;;;;;;;4.25;4.25;;;;;24.99;43.85;101464.72;4999112;28;45408;-46
2022/05/18 12:32:25;;;;;;;;;5.00;3.00;;;;;24.99;43.42;101474.50;4997436;28;45248;-46